Terminal Aerodrome Forecast
Issued by NWS

Home | Current Version | Previous Version | Text Only | Print | Product List | Glossary On
Versions: 1 2 3 4 5 6 7 8 9 10 11 12 13 14 15 16 17 18 19
000
FTUS43 KDVN 241700
TAFCID
TAF
KCID 241727Z 2418/2518 17007KT P6SM SCT040 SCT250
     FM250500 15006KT P6SM BKN250
     FM250800 15008KT P6SM VCTS SCT050CB OVC250
      TEMPO 2509/2511 3SM TSRA BR BKN040CB
     FM251100 16008KT 6SM -RA BR VCTS OVC040CB
     FM251500 18014G18KT P6SM BKN040=

USA.gov is the U.S. government's official web portal to all federal, state and local government web resources and services.